Time;durP1;ratioP1;P1;durP2;ratioP2;P2;SDS_P1;SDS_P2;PMS_P1;PMS_P2;Temp;Humidity;BMP_temperature;BMP_pressure;BME280_temperature;BME280_humidity;BME280_pressure;Samples;Min_cycle;Max_cycle;Signal;HPM_P1;HPM_P2
2022/01/04 00:01:48;;;;;;;1.88;1.05;;;;;;;20.48;39.07;100183.31;7314478;19;128943;-65
2022/01/04 00:04:15;;;;;;;2.08;0.80;;;;;;;20.45;38.75;100179.16;7318180;19;131258;-65
2022/01/04 00:06:44;;;;;;;1.67;0.52;;;;;;;20.44;38.87;100171.09;7315526;19;131067;-65
2022/01/04 00:09:12;;;;;;;3.33;1.05;;;;;;;20.43;38.90;100163.88;7318451;19;128995;-65
2022/01/04 00:11:59;;;;;;;1.48;0.60;;;;;;;20.41;39.17;100164.16;7315078;19;128940;-65
2022/01/04 00:14:26;;;;;;;1.83;0.90;;;;;;;20.39;39.20;100157.22;7316179;19;132399;-65
2022/01/04 00:16:55;;;;;;;1.70;0.80;;;;;;;20.39;39.20;100157.22;7318412;19;131967;-65
2022/01/04 00:19:22;;;;;;;3.03;0.82;;;;;;;20.38;38.71;100149.97;7315933;19;129032;-65
2022/01/04 00:21:49;;;;;;;1.45;0.73;;;;;;;20.35;38.87;100142.19;7318290;19;128918;-65
2022/01/04 00:24:16;;;;;;;3.97;1.00;;;;;;;20.33;38.95;100136.94;7315296;19;131406;-65
2022/01/04 00:26:43;;;;;;;2.08;0.65;;;;;;;20.33;39.25;100127.75;7317422;19;131982;-65
2022/01/04 00:29:14;;;;;;;2.35;0.85;;;;;;;20.33;38.85;100113.84;7314633;19;129096;-65
2022/01/04 00:31:41;;;;;;;2.20;0.80;;;;;;;20.31;39.03;100105.00;7315543;19;128927;-65
2022/01/04 00:34:08;;;;;;;3.67;0.90;;;;;;;20.30;38.92;100101.38;7314168;19;132099;-65
2022/01/04 00:36:34;;;;;;;1.98;0.68;;;;;;;20.27;39.27;100088.88;7314968;19;132016;-65
2022/01/04 00:39:02;;;;;;;1.25;0.68;;;;;;;20.27;38.91;100090.81;7316757;19;128923;-66
2022/01/04 00:41:28;;;;;;;2.03;0.73;;;;;;;20.24;38.86;100083.88;7314827;19;136647;-65
2022/01/04 00:43:55;;;;;;;2.05;0.65;;;;;;;20.23;39.11;100084.97;7318707;19;132090;-66
2022/01/04 00:46:22;;;;;;;1.90;0.80;;;;;;;20.22;39.04;100086.09;7312519;19;131204;-65
2022/01/04 00:51:34;;;;;;;1.88;0.90;;;;;;;20.20;39.44;100093.84;7315120;19;128822;-65
2022/01/04 00:54:01;;;;;;;2.05;0.80;;;;;;;20.18;38.95;100087.78;7315291;19;131242;-65
2022/01/04 00:56:29;;;;;;;3.25;1.00;;;;;;;20.18;39.21;100082.22;7317026;19;131198;-66
2022/01/04 00:58:55;;;;;;;2.17;0.90;;;;;;;20.17;39.30;100082.47;7314693;19;129012;-65
2022/01/04 01:01:22;;;;;;;1.25;0.70;;;;;;;20.15;39.49;100088.31;7317959;19;129168;-66
2022/01/04 01:03:50;;;;;;;2.63;0.80;;;;;;;20.15;39.59;100085.53;7312378;19;135982;-65
2022/01/04 01:06:17;;;;;;;3.08;0.77;;;;;;;20.13;39.31;100082.22;7317204;19;132180;-66
2022/01/04 01:08:44;;;;;;;1.42;0.70;;;;;;;20.12;39.52;100083.31;7313692;19;129412;-66
2022/01/04 01:11:12;;;;;;;1.15;0.65;;;;;;;20.13;39.45;100076.66;7316028;19;128696;-66
2022/01/04 01:13:39;;;;;;;1.70;0.80;;;;;;;20.12;39.27;100072.22;7315404;19;132056;-66
2022/01/04 01:16:06;;;;;;;4.95;0.70;;;;;;;20.11;39.01;100062.22;7313922;19;131124;-66
2022/01/04 01:18:33;;;;;;;2.67;0.70;;;;;;;20.09;39.26;100064.41;7316745;19;128904;-66
2022/01/04 01:21:01;;;;;;;1.08;0.80;;;;;;;20.09;39.41;100067.19;7311049;19;128745;-65
2022/01/04 01:23:28;;;;;;;2.00;0.68;;;;;;;20.07;39.44;100056.38;7315112;19;132345;-66
2022/01/04 01:25:55;;;;;;;1.50;0.63;;;;;;;20.06;39.57;100060.25;7312227;19;131329;-65
2022/01/04 01:28:22;;;;;;;2.35;0.88;;;;;;;20.05;39.46;100057.78;7315857;19;128968;-65
2022/01/04 01:30:49;;;;;;;1.52;0.70;;;;;;;20.04;39.40;100056.09;7312653;19;129132;-65
2022/01/04 01:33:16;;;;;;;1.30;0.77;;;;;;;20.03;39.42;100046.94;7315047;19;131887;-65
2022/01/04 01:35:43;;;;;;;3.60;0.90;;;;;;;20.04;39.45;100053.34;7314823;19;130954;-66
2022/01/04 01:38:12;;;;;;;3.60;0.88;;;;;;;20.03;39.60;100054.44;7313843;19;129191;-65
2022/01/04 01:40:40;;;;;;;4.05;1.13;;;;;;;20.03;39.43;100055.25;7312226;19;129350;-65
2022/01/04 01:43:08;;;;;;;1.92;0.60;;;;;;;20.01;39.41;100051.09;7307761;19;131520;-65
2022/01/04 01:45:35;;;;;;;2.20;0.80;;;;;;;20.00;39.61;100047.47;7312558;19;131106;-66
2022/01/04 01:48:03;;;;;;;2.33;0.65;;;;;;;19.99;39.19;100043.03;7310079;19;129039;-65
2022/01/04 01:50:29;;;;;;;1.38;0.80;;;;;;;19.97;39.25;100037.75;7313398;19;130635;-65
2022/01/04 01:52:56;;;;;;;1.98;0.80;;;;;;;19.98;39.25;100046.91;7312605;19;132685;-65
2022/01/04 01:55:24;;;;;;;1.30;0.80;;;;;;;19.95;39.50;100028.84;7315671;19;131014;-65
2022/01/04 01:57:52;;;;;;;2.45;0.80;;;;;;;19.95;39.27;100025.25;7313164;19;129114;-65
2022/01/04 02:00:22;;;;;;;1.35;0.75;;;;;;;19.94;39.72;100018.84;7313414;19;128849;-65
2022/01/04 02:02:49;;;;;;;4.32;0.90;;;;;;;19.93;39.35;100005.25;7315781;19;131198;-65
2022/01/04 02:05:16;;;;;;;1.48;0.50;;;;;;;19.91;39.65;99997.22;7313321;19;131083;-65
2022/01/04 02:07:43;;;;;;;3.63;0.60;;;;;;;19.92;39.31;99996.13;7316688;19;130121;-65
2022/01/04 02:10:11;;;;;;;4.35;0.98;;;;;;;19.90;39.32;99992.78;7311176;19;130728;-65
2022/01/04 02:12:41;;;;;;;3.58;0.85;;;;;;;19.89;39.72;99996.66;7314335;19;131457;-65
2022/01/04 02:15:11;;;;;;;3.72;0.85;;;;;;;19.89;39.50;99991.13;7312367;19;131540;-65
2022/01/04 02:17:38;;;;;;;1.45;0.75;;;;;;;19.89;39.76;99987.50;7313771;19;128885;-65
2022/01/04 02:20:07;;;;;;;3.15;0.93;;;;;;;19.88;39.30;99986.66;7313387;19;129175;-65
2022/01/04 02:22:35;;;;;;;2.03;0.75;;;;;;;19.88;39.69;99991.41;7312373;19;131120;-65
2022/01/04 02:25:02;;;;;;;1.42;0.75;;;;;;;19.88;39.92;99989.44;7315113;19;132860;-65
2022/01/04 02:27:29;;;;;;;3.47;0.68;;;;;;;19.87;39.54;99984.19;7311885;19;129185;-65
2022/01/04 02:29:56;;;;;;;3.45;0.90;;;;;;;19.86;39.37;99988.88;7314198;19;131085;-65
2022/01/04 02:32:23;;;;;;;3.88;0.75;;;;;;;19.86;39.39;99980.56;7310028;19;131144;-65
2022/01/04 02:34:51;;;;;;;3.35;0.90;;;;;;;19.85;39.67;99976.13;7315557;19;132045;-65
2022/01/04 02:37:27;;;;;;;1.20;0.82;;;;;;;19.84;39.55;99964.19;7311357;19;129008;-65
2022/01/04 02:39:55;;;;;;;4.10;0.90;;;;;;;19.83;39.40;99953.34;7311086;19;128937;-65
2022/01/04 02:42:22;;;;;;;2.60;0.65;;;;;;;19.82;39.90;99952.53;7311410;19;132033;-65
2022/01/04 02:44:49;;;;;;;1.52;0.70;;;;;;;19.82;39.64;99938.66;7311366;19;131177;-65
2022/01/04 02:47:16;;;;;;;2.97;1.00;;;;;;;19.80;39.82;99934.50;7314589;19;129094;-65
2022/01/04 02:49:44;;;;;;;3.53;0.80;;;;;;;19.80;39.51;99928.94;7310995;19;132084;-65
2022/01/04 02:52:11;;;;;;;5.60;0.80;;;;;;;19.78;39.70;99920.06;7315299;19;131210;-65
2022/01/04 02:54:38;;;;;;;2.03;0.80;;;;;;;19.79;39.91;99927.28;7310168;19;131172;-65
2022/01/04 02:57:04;;;;;;;2.25;0.65;;;;;;;19.77;39.68;99913.66;7314990;19;128923;-65
2022/01/04 02:59:31;;;;;;;5.20;1.05;;;;;;;19.77;39.68;99912.84;7310463;19;132327;-65
2022/01/04 03:01:59;;;;;;;2.70;0.82;;;;;;;19.77;39.46;99912.84;7312672;19;131858;-65
2022/01/04 03:04:26;;;;;;;3.70;0.60;;;;;;;19.75;39.72;99909.53;7313336;19;130986;-65
2022/01/04 03:06:53;;;;;;;1.40;0.75;;;;;;;19.75;39.62;99903.97;7312609;19;129452;-65
2022/01/04 03:09:19;;;;;;;3.83;0.90;;;;;;;19.75;39.88;99895.66;7314072;19;131474;-65
2022/01/04 03:11:46;;;;;;;3.80;0.75;;;;;;;19.74;39.62;99893.97;7309293;19;131350;-65
2022/01/04 03:14:13;;;;;;;2.95;0.80;;;;;;;19.73;39.46;99892.31;7313316;19;131694;-65
2022/01/04 03:16:40;;;;;;;2.38;0.70;;;;;;;19.73;39.60;99886.75;7310094;19;128913;-65
2022/01/04 03:19:07;;;;;;;1.63;0.80;;;;;;;19.71;39.69;99869.56;7314615;19;128851;-65
2022/01/04 03:21:35;;;;;;;2.78;0.70;;;;;;;19.72;39.69;99868.44;7308566;19;131784;-65
2022/01/04 03:24:03;;;;;;;1.85;0.75;;;;;;;19.69;39.92;99867.06;7314025;19;131975;-65
2022/01/04 03:26:31;;;;;;;2.08;0.80;;;;;;;19.69;39.72;99861.53;7310884;19;128970;-65
2022/01/04 03:28:58;;;;;;;2.90;0.90;;;;;;;19.68;39.56;99857.06;7312436;19;132117;-65
2022/01/04 03:31:27;;;;;;;5.32;0.90;;;;;;;19.67;39.66;99847.94;7310912;19;132082;-65
2022/01/04 03:33:54;;;;;;;3.78;0.85;;;;;;;19.67;39.72;99841.53;7307639;19;131043;-65
2022/01/04 03:36:22;;;;;;;1.20;0.60;;;;;;;19.65;39.92;99833.50;7313558;19;131370;-65
2022/01/04 03:38:51;;;;;;;4.72;0.93;;;;;;;19.65;39.77;99833.50;7309948;19;129716;-65
2022/01/04 03:41:20;;;;;;;2.03;0.70;;;;;;;19.65;39.95;99827.09;7313586;19;131532;-65
2022/01/04 03:43:47;;;;;;;1.67;0.80;;;;;;;19.63;39.51;99819.06;7310479;19;131995;-65
2022/01/04 03:46:14;;;;;;;1.65;1.08;;;;;;;19.64;39.41;99815.19;7311979;19;128657;-65
2022/01/04 03:48:41;;;;;;;4.90;0.80;;;;;;;19.63;40.04;99802.44;7308688;19;129839;-65
2022/01/04 03:51:08;;;;;;;3.42;0.70;;;;;;;19.62;39.67;99799.94;7310991;19;131088;-65
2022/01/04 03:53:35;;;;;;;4.53;0.95;;;;;;;19.61;39.54;99799.09;7313316;19;131253;-65
2022/01/04 03:56:02;;;;;;;1.83;0.65;;;;;;;19.60;39.62;99797.44;7310057;19;129172;-65
2022/01/04 03:58:29;;;;;;;1.85;0.70;;;;;;;19.60;39.63;99791.06;7312892;19;128868;-65
2022/01/04 04:00:56;;;;;;;2.72;0.90;;;;;;;19.60;40.09;99780.78;7309358;19;132696;-65
2022/01/04 04:03:23;;;;;;;2.40;0.75;;;;;;;19.58;39.57;99777.47;7312521;19;132014;-65
2022/01/04 04:05:50;;;;;;;1.83;0.70;;;;;;;19.57;39.69;99775.78;7309319;19;129176;-65
2022/01/04 04:08:17;;;;;;;1.55;0.93;;;;;;;19.60;39.88;99768.88;7312590;19;129340;-64
2022/01/04 04:10:43;;;;;;;1.40;0.80;;;;;;;19.58;39.93;99765.53;7307620;19;131355;-65
2022/01/04 04:13:10;;;;;;;3.83;1.08;;;;;;;19.57;39.68;99759.16;7311193;19;131223;-65
2022/01/04 04:15:40;;;;;;;0.98;0.70;;;;;;;19.57;40.00;99759.16;7310129;19;128912;-65
2022/01/04 04:18:07;;;;;;;1.95;0.63;;;;;;;19.56;39.86;99751.97;7308892;19;131521;-65
2022/01/04 04:20:36;;;;;;;4.38;0.80;;;;;;;19.55;39.57;99750.31;7311709;19;131925;-65
2022/01/04 04:23:04;;;;;;;3.33;0.80;;;;;;;19.56;39.65;99751.13;7306873;19;132493;-65
2022/01/04 04:25:31;;;;;;;2.25;0.75;;;;;;;19.55;39.66;99753.06;7312269;19;128905;-65
2022/01/04 04:27:58;;;;;;;2.42;0.77;;;;;;;19.54;39.68;99762.50;7308255;19;129113;-65
2022/01/04 04:30:25;;;;;;;2.53;0.75;;;;;;;19.53;39.65;99753.34;7311620;19;131252;-65
2022/01/04 04:32:52;;;;;;;1.35;0.70;;;;;;;19.52;40.10;99757.22;7309545;19;133818;-65
2022/01/04 04:35:18;;;;;;;2.38;0.70;;;;;;;19.52;39.71;99757.22;7309728;19;129109;-65
2022/01/04 04:37:45;;;;;;;3.72;0.88;;;;;;;19.51;39.99;99757.50;7310302;19;128888;-66
2022/01/04 04:40:12;;;;;;;3.25;1.00;;;;;;;19.51;40.02;99754.75;7308356;19;131147;-66
2022/01/04 04:42:39;;;;;;;1.85;0.70;;;;;;;19.49;39.89;99752.25;7311108;19;131464;-66
2022/01/04 04:45:07;;;;;;;3.78;0.80;;;;;;;19.50;39.67;99747.53;7309787;19;132396;-65
2022/01/04 04:47:34;;;;;;;2.03;0.70;;;;;;;19.50;39.92;99740.06;7319339;19;129209;-66
2022/01/04 04:50:01;;;;;;;1.83;0.90;;;;;;;19.49;39.71;99734.75;7313844;19;131952;-66
2022/01/04 04:52:28;;;;;;;1.08;0.70;;;;;;;19.49;40.10;99732.00;7315685;19;134123;-65
2022/01/04 04:54:54;;;;;;;2.25;0.82;;;;;;;19.48;39.76;99738.66;7314374;19;130423;-65
2022/01/04 04:57:21;;;;;;;1.55;0.68;;;;;;;19.48;39.71;99744.19;7317509;19;128759;-65
2022/01/04 04:59:48;;;;;;;1.65;0.65;;;;;;;19.48;39.72;99744.19;7316859;19;131892;-65
2022/01/04 05:02:14;;;;;;;3.08;0.77;;;;;;;19.49;40.05;99748.63;7312873;19;131962;-65
2022/01/04 05:04:41;;;;;;;2.28;0.70;;;;;;;19.47;40.03;99737.00;7315450;19;129464;-65
2022/01/04 05:07:08;;;;;;;1.55;0.90;;;;;;;19.47;39.92;99728.66;7312917;19;129085;-65
2022/01/04 05:09:35;;;;;;;1.15;0.60;;;;;;;19.47;39.81;99725.88;7315766;19;131139;-66
2022/01/04 05:12:02;;;;;;;0.93;0.75;;;;;;;19.46;39.89;99730.63;7312154;19;133839;-65
2022/01/04 05:14:29;;;;;;;1.13;0.80;;;;;;;19.46;40.16;99719.53;7316722;19;129377;-65
2022/01/04 05:16:56;;;;;;;1.17;0.75;;;;;;;19.46;39.68;99718.69;7312239;19;128940;-65
2022/01/04 05:19:22;;;;;;;1.40;0.60;;;;;;;19.47;40.08;99717.56;7316001;19;131504;-65
2022/01/04 05:21:49;;;;;;;1.20;0.57;;;;;;;19.46;39.87;99710.34;7313954;19;131042;-65
2022/01/04 05:24:16;;;;;;;1.75;0.73;;;;;;;19.47;39.96;99703.69;7315928;19;130759;-65
2022/01/04 05:26:43;;;;;;;2.25;0.68;;;;;;;19.46;39.91;99702.88;7316292;19;129062;-66
2022/01/04 05:29:09;;;;;;;1.58;0.73;;;;;;;19.45;40.10;99700.38;7315089;19;132040;-66
2022/01/04 05:31:36;;;;;;;2.97;0.70;;;;;;;19.46;40.03;99689.00;7315146;19;131892;-65
2022/01/04 05:34:03;;;;;;;1.90;0.95;;;;;;;19.47;40.04;99681.50;7311741;19;128851;-66
2022/01/04 05:36:29;;;;;;;1.83;0.70;;;;;;;19.46;39.92;99690.94;7316945;19;129179;-65
2022/01/04 05:38:56;;;;;;;1.20;0.65;;;;;;;19.46;39.73;99694.56;7310807;19;132202;-65
2022/01/04 05:41:23;;;;;;;1.30;0.65;;;;;;;19.46;39.74;99690.94;7315550;19;131101;-65
2022/01/04 05:43:49;;;;;;;1.80;0.68;;;;;;;19.45;39.92;99689.28;7311055;19;129726;-65
2022/01/04 05:46:16;;;;;;;1.35;0.85;;;;;;;19.44;39.89;99690.41;7313270;19;130831;-65
2022/01/04 05:48:43;;;;;;;1.77;0.85;;;;;;;19.44;39.96;99687.66;7314251;19;131209;-65
2022/01/04 05:51:10;;;;;;;1.33;0.70;;;;;;;19.44;39.69;99687.66;7310566;19;131857;-65
2022/01/04 05:53:37;;;;;;;3.10;0.60;;;;;;;19.43;39.92;99683.22;7315028;19;129528;-65
2022/01/04 05:56:04;;;;;;;2.25;0.80;;;;;;;19.44;39.92;99677.38;7310901;19;129206;-65
2022/01/04 05:58:31;;;;;;;1.45;0.80;;;;;;;19.43;39.93;99675.69;7314066;19;131212;-65
2022/01/04 06:00:58;;;;;;;3.67;0.70;;;;;;;19.43;40.07;99674.88;7311395;19;131036;-65
2022/01/04 06:03:25;;;;;;;0.75;0.50;;;;;;;19.42;39.78;99673.22;7315535;19;129022;-65
2022/01/04 06:05:53;;;;;;;1.27;0.70;;;;;;;19.42;40.05;99678.78;7312635;19;131612;-65
2022/01/04 06:08:21;;;;;;;4.32;0.65;;;;;;;19.43;40.17;99674.88;7310029;19;138108;-65
2022/01/04 06:10:51;;;;;;;1.10;0.70;;;;;;;19.42;39.73;99679.59;7307249;19;131387;-65
2022/01/04 06:16:03;;;;;;;1.98;0.55;;;;;;;19.41;39.65;99664.06;7308773;19;129114;-65
2022/01/04 06:18:30;;;;;;;1.50;0.50;;;;;;;19.40;39.98;99664.34;7306717;19;135587;-66
2022/01/04 06:20:57;;;;;;;1.40;0.60;;;;;;;19.40;39.84;99667.13;7314047;19;130968;-66
2022/01/04 06:23:24;;;;;;;3.33;0.70;;;;;;;19.42;40.23;99670.44;7311778;19;128974;-66
2022/01/04 06:25:52;;;;;;;1.52;0.80;;;;;;;19.46;39.69;99677.91;7314891;19;129095;-66
2022/01/04 06:28:20;;;;;;;1.67;0.63;;;;;;;19.55;39.97;99678.19;7312288;19;132005;-65
2022/01/04 06:30:50;;;;;;;1.00;0.60;;;;;;;19.69;39.57;99679.19;7311210;19;131145;-66
2022/01/04 06:33:21;;;;;;;1.67;0.60;;;;;;;19.86;39.39;99683.56;7312979;19;129403;-66
2022/01/04 06:35:49;;;;;;;0.90;0.60;;;;;;;20.05;39.34;99683.78;7310809;19;128908;-66
2022/01/04 06:38:17;;;;;;;2.88;0.75;;;;;;;20.23;39.07;99662.03;7313514;19;131109;-65
2022/01/04 06:40:43;;;;;;;4.35;0.57;;;;;;;20.43;38.84;99647.19;7308005;19;131208;-65
2022/01/04 06:43:10;;;;;;;7.22;1.02;;;;;;;20.61;38.63;99642.84;7313717;19;128904;-65
2022/01/04 06:45:37;;;;;;;6.88;1.08;;;;;;;20.78;38.10;99631.34;7310316;19;129167;-65
2022/01/04 06:48:04;;;;;;;2.83;0.70;;;;;;;20.97;38.31;99644.50;7313391;19;132082;-65
2022/01/04 06:50:31;;;;;;;4.32;0.60;;;;;;;21.09;37.91;99647.69;7310716;19;131853;-65
2022/01/04 06:52:58;;;;;;;1.52;0.50;;;;;;;21.19;37.82;99642.00;7311836;19;129164;-65
2022/01/04 06:55:25;;;;;;;3.17;0.65;;;;;;;21.29;37.69;99640.28;7309485;19;129333;-66
2022/01/04 06:57:52;;;;;;;2.53;0.63;;;;;;;21.39;37.43;99629.00;7309543;19;131679;-65
2022/01/04 07:00:19;;;;;;;2.83;0.90;;;;;;;21.45;37.64;99638.13;7312306;19;130972;-65
2022/01/04 07:02:45;;;;;;;1.92;0.80;;;;;;;21.49;37.00;99637.25;7311833;19;129699;-65
2022/01/04 07:05:12;;;;;;;8.32;0.68;;;;;;;21.51;36.80;99632.22;7315657;19;129249;-65
2022/01/04 07:07:39;;;;;;;5.30;0.85;;;;;;;21.51;36.89;99636.94;7309389;19;131111;-65
2022/01/04 07:10:06;;;;;;;1.38;0.70;;;;;;;21.50;37.00;99633.34;7312939;19;131810;-65
2022/01/04 07:12:33;;;;;;;1.65;0.60;;;;;;;21.47;37.19;99628.34;7309776;19;128955;-65
2022/01/04 07:15:00;;;;;;;2.17;0.98;;;;;;;21.44;37.19;99617.81;7313706;19;129057;-65
2022/01/04 07:17:27;;;;;;;4.50;0.93;;;;;;;21.39;37.41;99615.09;7310927;19;131221;-65
2022/01/04 07:19:54;;;;;;;1.83;0.55;;;;;;;21.35;37.43;99605.69;7311258;19;131058;-65
2022/01/04 07:22:20;;;;;;;2.60;0.70;;;;;;;21.30;37.29;99591.81;7313539;19;128856;-65
2022/01/04 07:24:47;;;;;;;1.08;0.60;;;;;;;21.23;37.37;99581.09;7310998;19;129162;-65
2022/01/04 07:27:14;;;;;;;3.28;0.70;;;;;;;21.17;37.48;99580.28;7314368;19;132048;-65
2022/01/04 07:29:41;;;;;;;3.05;0.88;;;;;;;21.12;37.77;99585.94;7309888;19;132720;-65
2022/01/04 07:32:07;;;;;;;4.43;0.70;;;;;;;21.07;37.90;99594.31;7313986;19;131831;-65
2022/01/04 07:34:34;;;;;;;1.65;0.73;;;;;;;21.01;37.88;99612.19;7310536;19;129257;-66
2022/01/04 07:37:02;;;;;;;2.47;0.85;;;;;;;20.96;37.76;99615.03;7313694;19;137119;-65
2022/01/04 07:39:28;;;;;;;4.80;0.63;;;;;;;20.90;37.68;99622.59;7311457;19;131160;-65
2022/01/04 07:41:57;;;;;;;4.50;0.65;;;;;;;20.85;38.18;99615.13;7310965;19;128995;-65
2022/01/04 07:44:25;;;;;;;3.28;0.80;;;;;;;20.82;37.77;99609.34;7311192;19;131727;-65
2022/01/04 07:46:52;;;;;;;3.97;0.70;;;;;;;20.78;37.74;99605.47;7309120;19;131047;-65
2022/01/04 07:49:20;;;;;;;2.90;0.70;;;;;;;20.75;38.01;99604.94;7311387;19;132118;-65
2022/01/04 07:51:47;;;;;;;1.48;0.68;;;;;;;20.74;38.04;99608.00;7309185;19;128952;-65
2022/01/04 07:54:13;;;;;;;1.45;0.80;;;;;;;20.75;38.02;99609.66;7313148;19;130107;-65
2022/01/04 07:56:40;;;;;;;3.15;0.60;;;;;;;20.72;38.04;99604.66;7309667;19;131729;-65
2022/01/04 07:59:07;;;;;;;1.48;0.82;;;;;;;20.72;38.08;99607.44;7310833;19;130938;-65
2022/01/04 08:01:34;;;;;;;1.88;0.90;;;;;;;20.74;38.17;99616.31;7313719;19;129540;-65
2022/01/04 08:04:01;;;;;;;2.58;0.90;;;;;;;20.73;37.87;99617.44;7311082;19;129038;-65
2022/01/04 08:06:28;;;;;;;2.90;0.85;;;;;;;20.74;38.32;99610.78;7312965;19;132136;-64
2022/01/04 08:08:54;;;;;;;1.75;0.85;;;;;;;20.77;38.25;99609.38;7309976;19;130993;-65
2022/01/04 08:11:21;;;;;;;2.08;0.90;;;;;;;20.78;38.00;99603.53;7311046;19;128743;-65
2022/01/04 08:13:48;;;;;;;2.13;0.70;;;;;;;20.79;38.06;99596.88;7309754;19;128958;-64
2022/01/04 08:16:15;;;;;;;2.22;0.70;;;;;;;20.82;38.22;99592.66;7313692;19;131518;-65
2022/01/04 08:18:42;;;;;;;3.10;0.70;;;;;;;20.83;37.91;99591.53;7309260;19;131056;-65
2022/01/04 08:21:29;;;;;;;4.85;0.70;;;;;;;20.85;37.96;99597.63;7315250;19;129173;-65
2022/01/04 08:23:56;;;;;;;1.67;0.70;;;;;;;20.88;37.86;99581.19;7318924;19;128822;-65
2022/01/04 08:26:23;;;;;;;3.75;0.90;;;;;;;20.89;37.87;99593.97;7317188;19;130926;-65
2022/01/04 08:28:50;;;;;;;3.47;0.80;;;;;;;20.92;37.59;99612.00;7315670;19;132421;-65
2022/01/04 08:31:17;;;;;;;2.50;1.00;;;;;;;20.94;37.58;99618.09;7315990;19;128954;-64
2022/01/04 08:33:51;;;;;;;2.10;0.77;;;;;;;20.96;37.80;99631.69;7317854;19;130730;-65
2022/01/04 08:36:18;;;;;;;1.58;0.65;;;;;;;20.99;37.81;99642.25;7315822;19;131581;-65
2022/01/04 08:38:44;;;;;;;1.80;0.70;;;;;;;21.01;37.48;99645.56;7317206;19;131174;-65
2022/01/04 08:41:11;;;;;;;1.80;0.80;;;;;;;21.03;37.76;99654.44;7319071;19;129291;-65
2022/01/04 08:43:38;;;;;;;1.35;0.70;;;;;;;21.06;37.51;99651.91;7316436;19;128889;-65
2022/01/04 08:46:05;;;;;;;2.10;1.00;;;;;;;21.07;37.41;99647.16;7318322;19;131155;-65
2022/01/04 08:48:32;;;;;;;1.67;0.90;;;;;;;21.10;37.70;99651.31;7315343;19;130892;-65
2022/01/04 08:50:58;;;;;;;2.50;0.77;;;;;;;21.11;37.84;99650.19;7318811;19;130993;-65
2022/01/04 08:53:25;;;;;;;4.13;1.00;;;;;;;21.13;37.73;99643.22;7315253;19;131223;-65
2022/01/04 08:55:52;;;;;;;2.70;1.00;;;;;;;21.16;37.81;99637.06;7318912;19;131078;-66
2022/01/04 08:58:19;;;;;;;4.25;0.82;;;;;;;21.17;37.55;99632.31;7313349;19;131190;-65
2022/01/04 09:00:46;;;;;;;2.33;0.93;;;;;;;21.18;37.73;99631.19;7317433;19;128994;-65
2022/01/04 09:03:14;;;;;;;2.50;1.00;;;;;;;21.19;37.68;99630.06;7317473;19;130696;-65
2022/01/04 09:05:41;;;;;;;1.80;0.85;;;;;;;21.20;37.60;99638.13;7314723;19;131750;-66
2022/01/04 09:08:08;;;;;;;2.75;0.65;;;;;;;21.22;37.58;99647.00;7317053;19;131297;-65
2022/01/04 09:10:34;;;;;;;2.58;0.60;;;;;;;21.22;37.83;99658.13;7307607;19;129331;-66
2022/01/04 09:13:09;;;;;;;1.70;1.13;;;;;;;21.21;37.60;99662.03;7313705;19;128929;-66
2022/01/04 09:21:14;;;;;;;4.38;1.00;;;;;;;21.28;37.60;99667.25;7316506;19;130464;-67
2022/01/04 09:23:43;;;;;;;2.63;1.15;;;;;;;21.31;37.19;99676.94;7314964;19;129052;-67
2022/01/04 09:26:10;;;;;;;2.30;1.25;;;;;;;21.32;37.09;99659.13;7317504;19;131392;-65
2022/01/04 09:28:36;;;;;;;3.42;1.20;;;;;;;21.35;37.30;99661.31;7314176;19;137376;-66
2022/01/04 09:31:04;;;;;;;3.25;1.10;;;;;;;21.38;36.69;99655.19;7316462;19;129021;-66
2022/01/04 09:33:31;;;;;;;2.78;1.00;;;;;;;21.41;36.66;99653.75;7311757;19;129195;-67
2022/01/04 09:36:18;;;;;;;2.95;1.08;;;;;;;21.43;36.44;99651.50;7318286;19;133371;-66
2022/01/04 09:38:45;;;;;;;3.40;1.30;;;;;;;21.45;36.92;99652.84;7314713;19;132182;-66
2022/01/04 09:41:12;;;;;;;2.92;0.98;;;;;;;21.46;36.67;99662.84;7315692;19;129281;-66
2022/01/04 09:43:38;;;;;;;3.33;1.20;;;;;;;21.49;36.69;99661.47;7314651;19;129142;-66
2022/01/04 09:46:07;;;;;;;5.35;1.27;;;;;;;21.50;36.44;99669.53;7315255;19;131223;-66
2022/01/04 09:48:34;;;;;;;3.63;1.13;;;;;;;21.51;36.64;99668.41;7313160;19;131545;-66
2022/01/04 09:51:00;;;;;;;3.78;0.98;;;;;;;21.54;36.13;99652.25;7313931;19;129032;-65
2022/01/04 09:53:27;;;;;;;2.00;1.00;;;;;;;21.57;36.10;99651.63;7315243;19;128818;-66
2022/01/04 09:55:56;;;;;;;5.72;0.88;;;;;;;21.59;36.52;99652.16;7314033;19;131438;-67
2022/01/04 09:58:24;;;;;;;3.78;1.15;;;;;;;21.60;36.29;99646.28;7316574;19;132155;-65
2022/01/04 10:00:52;;;;;;;3.10;1.05;;;;;;;21.60;36.10;99634.34;7312282;19;129006;-66
2022/01/04 10:03:29;;;;;;;3.28;1.00;;;;;;;21.62;36.04;99632.09;7316239;19;128611;-66
2022/01/04 10:06:14;;;;;;;2.13;1.00;;;;;;;21.64;35.97;99629.84;7311469;19;131879;-66
2022/01/04 10:08:55;;;;;;;2.35;1.13;;;;;;;21.67;35.96;99632.00;7315165;19;131336;-66
2022/01/04 10:11:37;;;;;;;2.00;1.13;;;;;;;21.68;35.93;99619.75;7315069;19;128869;-66
2022/01/04 10:14:27;;;;;;;5.15;1.20;;;;;;;21.69;36.06;99621.41;7312753;19;129144;-66
2022/01/04 10:16:57;;;;;;;2.90;1.45;;;;;;;21.69;36.02;99626.97;7314673;19;131948;-66
2022/01/04 10:19:35;;;;;;;2.20;1.30;;;;;;;21.71;35.98;99626.69;7312778;19;132430;-66
2022/01/04 10:22:18;;;;;;;1.90;1.20;;;;;;;21.71;35.69;99635.88;7316327;19;128919;-66
2022/01/04 10:24:48;;;;;;;;;;;;;;;21.70;35.84;99637.00;7314081;19;129173;-66
2022/01/04 10:27:36;;;;;;;2.95;1.20;;;;;;;21.74;35.50;99638.06;7314702;19;131082;-66
2022/01/04 10:30:12;;;;;;;1.90;1.17;;;;;;;21.75;35.60;99645.28;7315604;19;131501;-66
2022/01/04 10:32:46;;;;;;;8.05;1.38;;;;;;;21.74;35.65;99638.06;7312739;19;129082;-66
2022/01/04 10:35:25;;;;;;;3.05;1.52;;;;;;;21.76;35.34;99637.75;7316061;19;130777;-66
2022/01/04 10:37:53;;;;;;;2.05;0.98;;;;;;;21.75;35.52;99642.50;7311798;19;131056;-65
2022/01/04 10:40:20;;;;;;;2.90;1.45;;;;;;;21.78;35.53;99649.41;7314289;19;132360;-67
2022/01/04 10:42:46;;;;;;;5.13;1.15;;;;;;;21.78;35.13;99627.16;7310124;19;128978;-66
2022/01/04 10:45:30;;;;;;;3.33;1.60;;;;;;;21.79;35.44;99626.84;7314035;19;129093;-66
2022/01/04 10:48:26;;;;;;;1.73;1.17;;;;;;;21.79;34.95;99631.59;7312045;19;131958;-66
2022/01/04 10:50:58;;;;;;;1.88;1.27;;;;;;;21.79;35.18;99639.94;7311742;19;131918;-65
2022/01/04 10:53:26;;;;;;;2.15;1.10;;;;;;;21.77;35.23;99637.47;7303102;19;130228;-65
2022/01/04 10:56:02;;;;;;;2.25;1.10;;;;;;;21.78;35.11;99628.00;7310683;19;137256;-65
2022/01/04 10:58:56;;;;;;;4.30;1.10;;;;;;;21.77;34.83;99629.13;7315049;19;131128;-66
2022/01/04 11:01:45;;;;;;;1.65;1.00;;;;;;;21.78;35.04;99628.00;7309838;19;131264;-65
2022/01/04 11:04:17;;;;;;;2.05;0.85;;;;;;;21.79;35.43;99623.25;7312376;19;128809;-65
2022/01/04 11:06:46;;;;;;;2.03;1.20;;;;;;;21.78;35.18;99611.28;7315197;19;131446;-67
2022/01/04 11:09:14;;;;;;;2.80;1.45;;;;;;;21.81;34.90;99615.41;7309615;19;132293;-66
2022/01/04 11:11:42;;;;;;;3.58;1.00;;;;;;;21.81;34.97;99630.16;7314450;19;131113;-66
2022/01/04 11:14:14;;;;;;;1.92;1.10;;;;;;;21.82;35.14;99631.81;7310529;19;129086;-66
2022/01/04 11:16:41;;;;;;;3.28;1.10;;;;;;;21.83;35.38;99632.66;7314837;19;130362;-66
2022/01/04 11:19:09;;;;;;;2.45;1.30;;;;;;;21.83;35.14;99633.47;7309473;19;131216;-67
2022/01/04 11:21:41;;;;;;;2.35;1.00;;;;;;;21.85;35.03;99637.91;7312450;19;128905;-66
2022/01/04 11:24:12;;;;;;;2.05;1.02;;;;;;;21.85;34.85;99640.69;7310337;19;129056;-66
2022/01/04 11:26:41;;;;;;;1.98;0.90;;;;;;;21.85;34.81;99643.47;7312522;19;128963;-66
2022/01/04 11:29:08;;;;;;;2.22;1.02;;;;;;;21.84;34.98;99645.44;7312109;19;131206;-67
2022/01/04 11:31:54;;;;;;;1.90;0.90;;;;;;;21.85;35.09;99632.34;7311818;19;131392;-66
2022/01/04 11:34:49;;;;;;;2.20;1.07;;;;;;;21.86;34.74;99648.75;7310099;19;129239;-67
2022/01/04 11:37:21;;;;;;;2.95;1.13;;;;;;;21.86;34.80;99642.34;7308608;19;128940;-66
2022/01/04 11:39:51;;;;;;;2.83;1.08;;;;;;;21.85;34.94;99655.44;7312520;19;131262;-66
2022/01/04 11:42:37;;;;;;;1.77;1.15;;;;;;;21.86;34.88;99647.94;7310924;19;131302;-66